sensor_id;sensor_type;location;lat;lon;timestamp;pressure;altitude;pressure_sealevel;temperature;humidity
8101;BME280;4093;53.470;9.832;2023-03-08T00:00:17;99655.94;;;2.84;82.42
8101;BME280;4093;53.470;9.832;2023-03-08T00:02:46;99669.53;;;2.92;82.96
8101;BME280;4093;53.470;9.832;2023-03-08T00:05:14;99678.13;;;2.73;82.88
8101;BME280;4093;53.470;9.832;2023-03-08T00:07:42;99683.06;;;3.14;81.97
8101;BME280;4093;53.470;9.832;2023-03-08T00:10:10;99686.41;;;3.27;80.17
8101;BME280;4093;53.470;9.832;2023-03-08T00:12:38;99682.97;;;3.30;80.00
8101;BME280;4093;53.470;9.832;2023-03-08T00:15:06;99684.66;;;3.34;80.29
8101;BME280;4093;53.470;9.832;2023-03-08T00:17:36;99681.34;;;3.15;80.75
8101;BME280;4093;53.470;9.832;2023-03-08T00:20:06;99671.22;;;3.01;80.30
8101;BME280;4093;53.470;9.832;2023-03-08T00:22:36;99677.13;;;3.05;80.83
8101;BME280;4093;53.470;9.832;2023-03-08T00:25:05;99674.59;;;3.05;80.62
8101;BME280;4093;53.470;9.832;2023-03-08T00:27:35;99672.06;;;2.95;81.44
8101;BME280;4093;53.470;9.832;2023-03-08T00:30:04;99682.28;;;2.94;81.97
8101;BME280;4093;53.470;9.832;2023-03-08T00:32:32;99680.66;;;2.71;82.00
8101;BME280;4093;53.470;9.832;2023-03-08T00:35:02;99676.44;;;2.57;83.43
8101;BME280;4093;53.470;9.832;2023-03-08T00:37:29;99650.88;;;2.69;82.73
8101;BME280;4093;53.470;9.832;2023-03-08T00:39:57;99677.25;;;2.69;82.67
8101;BME280;4093;53.470;9.832;2023-03-08T00:42:25;99684.94;;;2.55;83.33
8101;BME280;4093;53.470;9.832;2023-03-08T00:44:53;99652.72;;;1.96;85.90
8101;BME280;4093;53.470;9.832;2023-03-08T00:47:21;99707.06;;;2.44;85.42
8101;BME280;4093;53.470;9.832;2023-03-08T00:49:48;99698.59;;;2.39;84.87
8101;BME280;4093;53.470;9.832;2023-03-08T00:52:17;99693.47;;;2.31;85.32
8101;BME280;4093;53.470;9.832;2023-03-08T00:54:45;99695.19;;;2.40;85.46
8101;BME280;4093;53.470;9.832;2023-03-08T00:57:13;99706.22;;;2.50;84.31
8101;BME280;4093;53.470;9.832;2023-03-08T00:59:42;99669.69;;;2.28;85.32
8101;BME280;4093;53.470;9.832;2023-03-08T01:02:09;99702.81;;;2.60;84.28
8101;BME280;4093;53.470;9.832;2023-03-08T01:04:37;99696.88;;;2.44;84.45
8101;BME280;4093;53.470;9.832;2023-03-08T01:07:05;99700.25;;;2.62;84.68
8101;BME280;4093;53.470;9.832;2023-03-08T01:09:34;99684.09;;;2.44;84.86
8101;BME280;4093;53.470;9.832;2023-03-08T01:12:02;99693.47;;;2.58;84.62
8101;BME280;4093;53.470;9.832;2023-03-08T01:14:30;99685.00;;;2.31;85.77
8101;BME280;4093;53.470;9.832;2023-03-08T01:16:58;99688.41;;;2.18;86.77
8101;BME280;4093;53.470;9.832;2023-03-08T01:19:26;99694.34;;;2.34;85.79
8101;BME280;4093;53.470;9.832;2023-03-08T01:21:53;99697.72;;;2.49;85.25
8101;BME280;4093;53.470;9.832;2023-03-08T01:24:21;99684.97;;;2.46;85.23
8101;BME280;4093;53.470;9.832;2023-03-08T01:26:50;99683.28;;;2.39;85.93
8101;BME280;4093;53.470;9.832;2023-03-08T01:29:21;99673.06;;;2.35;85.52
8101;BME280;4093;53.470;9.832;2023-03-08T01:31:49;99664.59;;;2.19;86.56
8101;BME280;4093;53.470;9.832;2023-03-08T01:34:18;99679.88;;;2.37;86.76
8101;BME280;4093;53.470;9.832;2023-03-08T01:36:46;99668.81;;;2.46;85.18
8101;BME280;4093;53.470;9.832;2023-03-08T01:39:14;99673.88;;;2.53;85.55
8101;BME280;4093;53.470;9.832;2023-03-08T01:41:42;99671.41;;;2.32;86.26
8101;BME280;4093;53.470;9.832;2023-03-08T01:44:13;99671.41;;;2.29;87.04
8101;BME280;4093;53.470;9.832;2023-03-08T01:46:42;99670.56;;;2.27;86.27
8101;BME280;4093;53.470;9.832;2023-03-08T01:49:12;99631.50;;;2.02;86.96
8101;BME280;4093;53.470;9.832;2023-03-08T01:51:42;99657.81;;;2.18;86.40
8101;BME280;4093;53.470;9.832;2023-03-08T01:54:13;99680.75;;;2.39;86.58
8101;BME280;4093;53.470;9.832;2023-03-08T01:56:44;99654.44;;;1.99;86.74
8101;BME280;4093;53.470;9.832;2023-03-08T01:59:15;99671.41;;;2.09;87.93
8101;BME280;4093;53.470;9.832;2023-03-08T02:01:44;99668.03;;;2.13;88.24
8101;BME280;4093;53.470;9.832;2023-03-08T02:04:11;99665.47;;;2.08;88.33
8101;BME280;4093;53.470;9.832;2023-03-08T02:06:41;99662.91;;;2.08;88.30
8101;BME280;4093;53.470;9.832;2023-03-08T02:09:09;99668.88;;;1.91;89.41
8101;BME280;4093;53.470;9.832;2023-03-08T02:11:38;99679.91;;;2.22;88.58
8101;BME280;4093;53.470;9.832;2023-03-08T02:14:07;99677.38;;;2.14;89.50
8101;BME280;4093;53.470;9.832;2023-03-08T02:16:37;99647.63;;;1.81;89.12
8101;BME280;4093;53.470;9.832;2023-03-08T02:19:09;99618.78;;;1.76;88.97
8101;BME280;4093;53.470;9.832;2023-03-08T02:21:37;99673.13;;;1.84;89.80
8101;BME280;4093;53.470;9.832;2023-03-08T02:24:17;99662.91;;;1.72;91.29
8101;BME280;4093;53.470;9.832;2023-03-08T02:26:45;99673.09;;;1.66;92.42
8101;BME280;4093;53.470;9.832;2023-03-08T02:29:13;99676.50;;;1.71;93.04
8101;BME280;4093;53.470;9.832;2023-03-08T02:31:41;99688.41;;;1.96;92.58
8101;BME280;4093;53.470;9.832;2023-03-08T02:34:09;99681.63;;;2.20;91.90
8101;BME280;4093;53.470;9.832;2023-03-08T02:36:37;99635.72;;;1.94;91.17
8101;BME280;4093;53.470;9.832;2023-03-08T02:39:05;99679.03;;;2.30;90.58
8101;BME280;4093;53.470;9.832;2023-03-08T02:41:34;99675.56;;;2.71;89.47
8101;BME280;4093;53.470;9.832;2023-03-08T02:44:02;99669.56;;;2.80;88.35
8101;BME280;4093;53.470;9.832;2023-03-08T02:46:29;99665.34;;;2.79;88.02
8101;BME280;4093;53.470;9.832;2023-03-08T02:48:59;99673.84;;;2.80;88.59
8101;BME280;4093;53.470;9.832;2023-03-08T02:51:27;99669.53;;;2.95;88.12
8101;BME280;4093;53.470;9.832;2023-03-08T02:53:55;99648.34;;;2.60;89.30
8101;BME280;4093;53.470;9.832;2023-03-08T02:56:23;99663.66;;;2.60;89.08
8101;BME280;4093;53.470;9.832;2023-03-08T02:58:52;99656.84;;;2.74;88.28
8101;BME280;4093;53.470;9.832;2023-03-08T03:01:20;99678.06;;;2.87;88.78
8101;BME280;4093;53.470;9.832;2023-03-08T03:03:48;99669.50;;;2.98;88.60
8101;BME280;4093;53.470;9.832;2023-03-08T03:06:17;99661.09;;;2.72;88.30
8101;BME280;4093;53.470;9.832;2023-03-08T03:08:46;99660.97;;;3.06;87.58
8101;BME280;4093;53.470;9.832;2023-03-08T03:11:15;99643.22;;;2.76;87.66
8101;BME280;4093;53.470;9.832;2023-03-08T03:13:43;99650.03;;;2.79;88.18
8101;BME280;4093;53.470;9.832;2023-03-08T03:16:14;99659.34;;;2.86;88.18
8101;BME280;4093;53.470;9.832;2023-03-08T03:18:42;99668.63;;;3.06;88.19
8101;BME280;4093;53.470;9.832;2023-03-08T03:21:12;99651.78;;;2.60;88.56
8101;BME280;4093;53.470;9.832;2023-03-08T03:23:41;99667.88;;;2.82;88.48
8101;BME280;4093;53.470;9.832;2023-03-08T03:26:10;99665.22;;;3.08;87.21
8101;BME280;4093;53.470;9.832;2023-03-08T03:28:39;99672.81;;;3.19;87.02
8101;BME280;4093;53.470;9.832;2023-03-08T03:31:08;99670.16;;;3.39;85.35
8101;BME280;4093;53.470;9.832;2023-03-08T03:33:37;99670.09;;;3.50;85.57
8101;BME280;4093;53.470;9.832;2023-03-08T03:36:07;99672.53;;;3.65;84.20
8101;BME280;4093;53.470;9.832;2023-03-08T03:38:35;99657.53;;;3.07;86.50
8101;BME280;4093;53.470;9.832;2023-03-08T03:41:04;99652.44;;;3.04;87.26
8101;BME280;4093;53.470;9.832;2023-03-08T03:43:33;99652.50;;;2.88;87.58
8101;BME280;4093;53.470;9.832;2023-03-08T03:46:04;99663.53;;;3.07;87.38
8101;BME280;4093;53.470;9.832;2023-03-08T03:48:33;99665.94;;;3.33;85.70
8101;BME280;4093;53.470;9.832;2023-03-08T03:51:05;99677.78;;;3.45;85.56
8101;BME280;4093;53.470;9.832;2023-03-08T03:53:34;99666.97;;;2.91;86.69
8101;BME280;4093;53.470;9.832;2023-03-08T03:56:03;99616.91;;;2.64;86.91
8101;BME280;4093;53.470;9.832;2023-03-08T03:58:31;99658.47;;;2.90;87.28
8101;BME280;4093;53.470;9.832;2023-03-08T04:00:59;99667.03;;;2.77;88.09
8101;BME280;4093;53.470;9.832;2023-03-08T04:03:27;99661.09;;;2.66;89.50
8101;BME280;4093;53.470;9.832;2023-03-08T04:06:05;99659.41;;;2.68;88.66
8101;BME280;4093;53.470;9.832;2023-03-08T04:08:34;99666.22;;;2.53;90.71
8101;BME280;4093;53.470;9.832;2023-03-08T04:11:07;99672.16;;;2.68;89.62
8101;BME280;4093;53.470;9.832;2023-03-08T04:13:35;99669.59;;;2.68;90.10
8101;BME280;4093;53.470;9.832;2023-03-08T04:16:10;99669.66;;;2.57;91.10
8101;BME280;4093;53.470;9.832;2023-03-08T04:18:38;99676.34;;;2.87;90.00
8101;BME280;4093;53.470;9.832;2023-03-08T04:21:08;99668.75;;;2.73;90.04
8101;BME280;4093;53.470;9.832;2023-03-08T04:23:36;99668.69;;;2.90;90.00
8101;BME280;4093;53.470;9.832;2023-03-08T04:26:05;99662.75;;;2.87;89.01
8101;BME280;4093;53.470;9.832;2023-03-08T04:28:33;99674.50;;;3.23;87.70
8101;BME280;4093;53.470;9.832;2023-03-08T04:31:11;99669.63;;;2.55;89.92
8101;BME280;4093;53.470;9.832;2023-03-08T04:33:38;99667.81;;;2.91;89.00
8101;BME280;4093;53.470;9.832;2023-03-08T04:36:08;99688.25;;;2.87;89.37
8101;BME280;4093;53.470;9.832;2023-03-08T04:38:36;99678.00;;;3.00;88.90
8101;BME280;4093;53.470;9.832;2023-03-08T04:41:04;99678.81;;;3.06;87.99
8101;BME280;4093;53.470;9.832;2023-03-08T04:43:37;99654.16;;;3.08;87.72
8101;BME280;4093;53.470;9.832;2023-03-08T04:46:06;99687.22;;;3.28;87.07
8101;BME280;4093;53.470;9.832;2023-03-08T04:48:34;99676.28;;;3.03;87.21
8101;BME280;4093;53.470;9.832;2023-03-08T04:51:04;99675.44;;;3.00;88.25
8101;BME280;4093;53.470;9.832;2023-03-08T04:53:34;99676.31;;;2.93;88.76
8101;BME280;4093;53.470;9.832;2023-03-08T04:56:02;99679.69;;;3.05;87.87
8101;BME280;4093;53.470;9.832;2023-03-08T04:58:30;99682.28;;;2.94;88.80
8101;BME280;4093;53.470;9.832;2023-03-08T05:00:59;99667.09;;;2.54;89.53
8101;BME280;4093;53.470;9.832;2023-03-08T05:03:27;99686.53;;;2.93;89.51
8101;BME280;4093;53.470;9.832;2023-03-08T05:05:54;99683.84;;;3.22;87.33
8101;BME280;4093;53.470;9.832;2023-03-08T05:08:22;99689.84;;;3.17;88.34
8101;BME280;4093;53.470;9.832;2023-03-08T05:10:55;99682.13;;;3.31;86.75
8101;BME280;4093;53.470;9.832;2023-03-08T05:13:27;99668.56;;;3.18;87.42
8101;BME280;4093;53.470;9.832;2023-03-08T05:15:55;99670.34;;;2.97;88.32
8101;BME280;4093;53.470;9.832;2023-03-08T05:18:24;99653.41;;;2.83;88.49
8101;BME280;4093;53.470;9.832;2023-03-08T05:20:53;99671.88;;;3.34;87.72
8101;BME280;4093;53.470;9.832;2023-03-08T05:23:22;99669.13;;;3.63;85.35
8101;BME280;4093;53.470;9.832;2023-03-08T05:25:52;99661.59;;;3.43;86.61
8101;BME280;4093;53.470;9.832;2023-03-08T05:28:20;99657.38;;;3.39;86.38
8101;BME280;4093;53.470;9.832;2023-03-08T05:30:49;99656.59;;;3.29;86.59
8101;BME280;4093;53.470;9.832;2023-03-08T05:33:17;99661.09;;;2.76;89.86
8101;BME280;4093;53.470;9.832;2023-03-08T05:35:51;99628.88;;;2.37;89.78
8101;BME280;4093;53.470;9.832;2023-03-08T05:38:20;99643.25;;;2.67;90.08
8101;BME280;4093;53.470;9.832;2023-03-08T05:40:49;99665.97;;;3.19;87.86
8101;BME280;4093;53.470;9.832;2023-03-08T05:43:19;99655.03;;;2.94;88.62
8101;BME280;4093;53.470;9.832;2023-03-08T05:45:54;99644.97;;;2.64;90.02
8101;BME280;4093;53.470;9.832;2023-03-08T05:48:23;99666.94;;;2.97;89.17
8101;BME280;4093;53.470;9.832;2023-03-08T05:50:52;99648.28;;;2.89;88.27
8101;BME280;4093;53.470;9.832;2023-03-08T05:53:20;99661.91;;;2.86;89.67
8101;BME280;4093;53.470;9.832;2023-03-08T05:55:48;99642.06;;;3.34;86.85
8101;BME280;4093;53.470;9.832;2023-03-08T05:58:16;99650.69;;;3.18;87.35
8101;BME280;4093;53.470;9.832;2023-03-08T06:00:45;99663.59;;;2.81;88.64
8101;BME280;4093;53.470;9.832;2023-03-08T06:03:13;99670.31;;;3.08;88.15
8101;BME280;4093;53.470;9.832;2023-03-08T06:05:41;99609.13;;;2.87;87.07
8101;BME280;4093;53.470;9.832;2023-03-08T06:08:09;99665.03;;;3.42;86.27
8101;BME280;4093;53.470;9.832;2023-03-08T06:10:37;99662.41;;;3.51;86.20
8101;BME280;4093;53.470;9.832;2023-03-08T06:13:05;99669.31;;;3.37;86.56
8101;BME280;4093;53.470;9.832;2023-03-08T06:15:33;99624.28;;;3.23;86.40
8101;BME280;4093;53.470;9.832;2023-03-08T06:18:02;99651.41;;;3.35;86.46
8101;BME280;4093;53.470;9.832;2023-03-08T06:20:30;99635.22;;;3.42;86.16
8101;BME280;4093;53.470;9.832;2023-03-08T06:22:58;99667.34;;;3.77;85.08
8101;BME280;4093;53.470;9.832;2023-03-08T06:25:26;99612.50;;;2.95;86.93
8101;BME280;4093;53.470;9.832;2023-03-08T06:27:54;99648.13;;;3.13;87.86
8101;BME280;4093;53.470;9.832;2023-03-08T06:30:21;99644.50;;;3.53;85.98
8101;BME280;4093;53.470;9.832;2023-03-08T06:32:49;99638.53;;;3.54;85.36
8101;BME280;4093;53.470;9.832;2023-03-08T06:35:18;99647.19;;;3.34;85.87
8101;BME280;4093;53.470;9.832;2023-03-08T06:37:46;99640.53;;;3.06;87.11
8101;BME280;4093;53.470;9.832;2023-03-08T06:40:14;99658.16;;;3.52;85.70
8101;BME280;4093;53.470;9.832;2023-03-08T06:42:42;99650.34;;;3.68;84.88
8101;BME280;4093;53.470;9.832;2023-03-08T06:45:10;99652.97;;;3.62;85.22
8101;BME280;4093;53.470;9.832;2023-03-08T06:47:38;99645.47;;;3.32;85.77
8101;BME280;4093;53.470;9.832;2023-03-08T06:50:07;99652.13;;;3.59;84.98
8101;BME280;4093;53.470;9.832;2023-03-08T06:52:36;99644.38;;;3.71;84.15
8101;BME280;4093;53.470;9.832;2023-03-08T06:55:05;99658.09;;;3.61;84.94
8101;BME280;4093;53.470;9.832;2023-03-08T06:57:33;99643.50;;;3.75;84.17
8101;BME280;4093;53.470;9.832;2023-03-08T07:00:00;99650.16;;;3.91;83.67
8101;BME280;4093;53.470;9.832;2023-03-08T07:02:29;99652.97;;;3.59;84.68
8101;BME280;4093;53.470;9.832;2023-03-08T07:04:57;99646.41;;;3.26;85.83
8101;BME280;4093;53.470;9.832;2023-03-08T07:07:25;99658.28;;;3.30;86.14
8101;BME280;4093;53.470;9.832;2023-03-08T07:09:54;99633.69;;;3.14;86.17
8101;BME280;4093;53.470;9.832;2023-03-08T07:12:23;99615.66;;;3.35;84.79
8101;BME280;4093;53.470;9.832;2023-03-08T07:14:51;99644.63;;;3.36;85.22
8101;BME280;4093;53.470;9.832;2023-03-08T07:17:19;99659.63;;;3.83;84.00
8101;BME280;4093;53.470;9.832;2023-03-08T07:19:46;99634.78;;;3.99;83.48
8101;BME280;4093;53.470;9.832;2023-03-08T07:22:14;99610.13;;;3.90;82.40
8101;BME280;4093;53.470;9.832;2023-03-08T07:24:46;99651.78;;;4.03;82.54
8101;BME280;4093;53.470;9.832;2023-03-08T07:27:16;99647.47;;;4.10;82.26
8101;BME280;4093;53.470;9.832;2023-03-08T07:29:44;99654.03;;;4.37;82.24
8101;BME280;4093;53.470;9.832;2023-03-08T07:32:12;99644.47;;;4.53;81.03
8101;BME280;4093;53.470;9.832;2023-03-08T07:34:40;99644.22;;;4.77;80.55
8101;BME280;4093;53.470;9.832;2023-03-08T07:37:10;99630.25;;;4.26;81.44
8101;BME280;4093;53.470;9.832;2023-03-08T07:39:38;99643.41;;;3.87;83.29
8101;BME280;4093;53.470;9.832;2023-03-08T07:42:06;99633.16;;;3.87;82.98
8101;BME280;4093;53.470;9.832;2023-03-08T07:44:35;99651.41;;;3.38;85.64
8101;BME280;4093;53.470;9.832;2023-03-08T07:47:04;99648.06;;;3.25;85.78
8101;BME280;4093;53.470;9.832;2023-03-08T07:49:32;99668.97;;;3.84;84.68
8101;BME280;4093;53.470;9.832;2023-03-08T07:52:00;99662.22;;;3.80;83.46
8101;BME280;4093;53.470;9.832;2023-03-08T07:54:28;99669.00;;;3.86;85.02
8101;BME280;4093;53.470;9.832;2023-03-08T07:56:56;99650.75;;;4.23;81.81
8101;BME280;4093;53.470;9.832;2023-03-08T07:59:24;99581.91;;;4.00;81.12
8101;BME280;4093;53.470;9.832;2023-03-08T08:01:53;99645.34;;;4.50;80.69
8101;BME280;4093;53.470;9.832;2023-03-08T08:04:21;99628.34;;;4.45;80.66
8101;BME280;4093;53.470;9.832;2023-03-08T08:06:49;99587.13;;;3.90;82.01
8101;BME280;4093;53.470;9.832;2023-03-08T08:09:17;99638.75;;;4.31;82.09
8101;BME280;4093;53.470;9.832;2023-03-08T08:11:44;99622.13;;;4.70;80.42
8101;BME280;4093;53.470;9.832;2023-03-08T08:14:12;99635.34;;;5.03;80.04
8101;BME280;4093;53.470;9.832;2023-03-08T08:16:40;99618.13;;;5.14;78.08
8101;BME280;4093;53.470;9.832;2023-03-08T08:19:10;99612.69;;;4.74;79.23
8101;BME280;4093;53.470;9.832;2023-03-08T08:21:40;99607.97;;;5.08;79.25
8101;BME280;4093;53.470;9.832;2023-03-08T08:24:08;99623.31;;;5.11;78.92
8101;BME280;4093;53.470;9.832;2023-03-08T08:26:35;99610.91;;;5.42;77.56
8101;BME280;4093;53.470;9.832;2023-03-08T08:29:03;99622.16;;;5.30;77.70
8101;BME280;4093;53.470;9.832;2023-03-08T08:31:31;99629.09;;;5.22;77.64
8101;BME280;4093;53.470;9.832;2023-03-08T08:34:02;99613.22;;;4.99;77.76
8101;BME280;4093;53.470;9.832;2023-03-08T08:36:31;99625.41;;;4.78;78.69
8101;BME280;4093;53.470;9.832;2023-03-08T08:38:59;99628.34;;;5.16;78.76
8101;BME280;4093;53.470;9.832;2023-03-08T08:41:27;99633.50;;;5.14;78.21
8101;BME280;4093;53.470;9.832;2023-03-08T08:43:57;99628.63;;;4.96;79.24
8101;BME280;4093;53.470;9.832;2023-03-08T08:46:26;99636.59;;;5.38;78.06
8101;BME280;4093;53.470;9.832;2023-03-08T08:48:55;99635.22;;;5.12;77.91
8101;BME280;4093;53.470;9.832;2023-03-08T08:51:24;99631.66;;;5.22;78.32
8101;BME280;4093;53.470;9.832;2023-03-08T08:53:54;99631.94;;;5.01;78.09
8101;BME280;4093;53.470;9.832;2023-03-08T08:56:23;99643.75;;;5.13;78.72
8101;BME280;4093;53.470;9.832;2023-03-08T08:58:54;99609.94;;;4.87;78.93
8101;BME280;4093;53.470;9.832;2023-03-08T09:01:24;99635.16;;;5.18;78.71
8101;BME280;4093;53.470;9.832;2023-03-08T09:03:52;99535.16;;;4.62;77.83
8101;BME280;4093;53.470;9.832;2023-03-08T09:06:22;99628.81;;;4.80;79.69
8101;BME280;4093;53.470;9.832;2023-03-08T09:08:50;99634.69;;;5.52;77.92
8101;BME280;4093;53.470;9.832;2023-03-08T09:11:20;99620.44;;;5.87;75.70
8101;BME280;4093;53.470;9.832;2023-03-08T09:13:48;99559.19;;;5.68;75.61
8101;BME280;4093;53.470;9.832;2023-03-08T09:16:18;99611.97;;;5.82;76.35
8101;BME280;4093;53.470;9.832;2023-03-08T09:18:46;99621.81;;;6.09;75.42
8101;BME280;4093;53.470;9.832;2023-03-08T09:21:14;99615.19;;;5.96;74.19
8101;BME280;4093;53.470;9.832;2023-03-08T09:23:42;99579.50;;;5.80;74.98
8101;BME280;4093;53.470;9.832;2023-03-08T09:26:11;99608.97;;;6.09;74.97
8101;BME280;4093;53.470;9.832;2023-03-08T09:28:40;99594.81;;;5.29;75.80
8101;BME280;4093;53.470;9.832;2023-03-08T09:31:09;99597.75;;;5.05;77.36
8101;BME280;4093;53.470;9.832;2023-03-08T09:33:42;99611.16;;;5.22;76.79
8101;BME280;4093;53.470;9.832;2023-03-08T09:36:10;99616.88;;;5.41;77.19
8101;BME280;4093;53.470;9.832;2023-03-08T09:38:38;99599.41;;;5.07;77.28
8101;BME280;4093;53.470;9.832;2023-03-08T09:41:15;99614.53;;;5.27;77.50
8101;BME280;4093;53.470;9.832;2023-03-08T09:44:03;99604.00;;;5.46;75.88
8101;BME280;4093;53.470;9.832;2023-03-08T09:46:35;99613.13;;;5.05;77.40
8101;BME280;4093;53.470;9.832;2023-03-08T09:49:10;99595.16;;;5.06;76.51
8101;BME280;4093;53.470;9.832;2023-03-08T09:51:42;99609.28;;;5.35;76.58
8101;BME280;4093;53.470;9.832;2023-03-08T09:54:14;99614.19;;;5.50;76.22
8101;BME280;4093;53.470;9.832;2023-03-08T09:56:46;99597.44;;;5.26;76.50
8101;BME280;4093;53.470;9.832;2023-03-08T09:59:20;99565.88;;;5.24;74.82
8101;BME280;4093;53.470;9.832;2023-03-08T10:01:56;99588.50;;;4.95;76.95
8101;BME280;4093;53.470;9.832;2023-03-08T10:04:37;99589.38;;;5.51;75.61
8101;BME280;4093;53.470;9.832;2023-03-08T10:07:33;99589.97;;;5.68;74.62
8101;BME280;4093;53.470;9.832;2023-03-08T10:10:14;99585.53;;;5.76;74.82
8101;BME280;4093;53.470;9.832;2023-03-08T10:12:54;99577.16;;;5.67;74.03
8101;BME280;4093;53.470;9.832;2023-03-08T10:15:30;99569.41;;;5.71;73.98
8101;BME280;4093;53.470;9.832;2023-03-08T10:18:02;99567.94;;;5.58;74.29
8101;BME280;4093;53.470;9.832;2023-03-08T10:20:34;99534.81;;;5.44;73.99
8101;BME280;4093;53.470;9.832;2023-03-08T10:23:11;99565.63;;;5.94;72.69
8101;BME280;4093;53.470;9.832;2023-03-08T10:25:40;99567.38;;;5.89;73.21
8101;BME280;4093;53.470;9.832;2023-03-08T10:28:11;99570.06;;;5.83;74.25
8101;BME280;4093;53.470;9.832;2023-03-08T10:30:44;99551.81;;;6.01;72.76
8101;BME280;4093;53.470;9.832;2023-03-08T10:33:14;99556.63;;;5.68;74.50
8101;BME280;4093;53.470;9.832;2023-03-08T10:35:53;99551.75;;;6.49;72.77
8101;BME280;4093;53.470;9.832;2023-03-08T10:38:25;99510.31;;;6.66;71.80
8101;BME280;4093;53.470;9.832;2023-03-08T10:41:01;99547.13;;;7.41;70.99
8101;BME280;4093;53.470;9.832;2023-03-08T10:43:31;99534.13;;;6.74;69.19
8101;BME280;4093;53.470;9.832;2023-03-08T10:46:04;99532.63;;;7.01;69.21
8101;BME280;4093;53.470;9.832;2023-03-08T10:48:32;99527.59;;;6.58;69.89
8101;BME280;4093;53.470;9.832;2023-03-08T10:51:01;99535.06;;;7.07;68.54
8101;BME280;4093;53.470;9.832;2023-03-08T10:53:30;99522.56;;;6.92;68.40
8101;BME280;4093;53.470;9.832;2023-03-08T10:56:00;99497.22;;;7.14;67.77
8101;BME280;4093;53.470;9.832;2023-03-08T10:58:31;99523.53;;;7.25;67.41
8101;BME280;4093;53.470;9.832;2023-03-08T11:01:03;99520.53;;;7.06;67.96
8101;BME280;4093;53.470;9.832;2023-03-08T11:03:32;99516.22;;;5.33;71.82
8101;BME280;4093;53.470;9.832;2023-03-08T11:06:02;99530.81;;;6.27;71.78
8101;BME280;4093;53.470;9.832;2023-03-08T11:08:33;99529.06;;;6.69;69.88
8101;BME280;4093;53.470;9.832;2023-03-08T11:11:04;99496.16;;;7.23;67.16
8101;BME280;4093;53.470;9.832;2023-03-08T11:13:34;99512.34;;;7.95;66.72
8101;BME280;4093;53.470;9.832;2023-03-08T11:16:22;99458.97;;;7.36;65.94
8101;BME280;4093;53.470;9.832;2023-03-08T11:18:58;99500.50;;;7.55;65.43
8101;BME280;4093;53.470;9.832;2023-03-08T11:21:32;99490.41;;;7.47;66.04
8101;BME280;4093;53.470;9.832;2023-03-08T11:24:15;99502.31;;;7.51;65.64
8101;BME280;4093;53.470;9.832;2023-03-08T11:26:53;99459.63;;;7.44;64.52
8101;BME280;4093;53.470;9.832;2023-03-08T11:29:35;99498.94;;;7.49;66.03
8101;BME280;4093;53.470;9.832;2023-03-08T11:32:17;99487.06;;;7.78;66.17
8101;BME280;4093;53.470;9.832;2023-03-08T11:35:05;99482.00;;;8.35;63.60
8101;BME280;4093;53.470;9.832;2023-03-08T11:37:40;99475.31;;;8.30;63.58
8101;BME280;4093;53.470;9.832;2023-03-08T11:40:19;99485.16;;;8.47;62.20
8101;BME280;4093;53.470;9.832;2023-03-08T11:42:53;99478.13;;;8.21;63.11
8101;BME280;4093;53.470;9.832;2023-03-08T11:45:28;99474.69;;;8.53;62.24
8101;BME280;4093;53.470;9.832;2023-03-08T11:51:17;99472.66;;;7.38;63.90
8101;BME280;4093;53.470;9.832;2023-03-08T11:53:55;99462.09;;;8.42;62.39
8101;BME280;4093;53.470;9.832;2023-03-08T11:56:44;99459.94;;;8.27;62.18
8101;BME280;4093;53.470;9.832;2023-03-08T11:59:20;99414.84;;;8.14;63.48
8101;BME280;4093;53.470;9.832;2023-03-08T12:01:53;99417.38;;;7.22;65.49
8101;BME280;4093;53.470;9.832;2023-03-08T12:04:28;99447.91;;;7.67;63.90
8101;BME280;4093;53.470;9.832;2023-03-08T12:06:59;99456.88;;;8.14;64.85
8101;BME280;4093;53.470;9.832;2023-03-08T12:09:32;99446.75;;;8.39;62.95
8101;BME280;4093;53.470;9.832;2023-03-08T12:12:05;99446.13;;;8.31;61.34
8101;BME280;4093;53.470;9.832;2023-03-08T12:14:39;99416.56;;;8.71;60.98
8101;BME280;4093;53.470;9.832;2023-03-08T12:17:14;99439.50;;;9.07;60.06
8101;BME280;4093;53.470;9.832;2023-03-08T12:19:48;99435.59;;;8.95;60.69
8101;BME280;4093;53.470;9.832;2023-03-08T12:22:29;99428.31;;;8.53;59.83
8101;BME280;4093;53.470;9.832;2023-03-08T12:25:06;99422.44;;;8.48;59.90
8101;BME280;4093;53.470;9.832;2023-03-08T12:27:40;99425.22;;;8.10;62.81
8101;BME280;4093;53.470;9.832;2023-03-08T12:30:16;99431.94;;;8.74;60.80
8101;BME280;4093;53.470;9.832;2023-03-08T12:32:47;99431.56;;;8.86;59.25
8101;BME280;4093;53.470;9.832;2023-03-08T12:35:29;99379.88;;;8.06;61.60
8101;BME280;4093;53.470;9.832;2023-03-08T12:37:58;99425.59;;;8.57;60.41
8101;BME280;4093;53.470;9.832;2023-03-08T12:40:36;99423.25;;;8.78;60.95
8101;BME280;4093;53.470;9.832;2023-03-08T12:43:08;99398.53;;;7.54;62.99
8101;BME280;4093;53.470;9.832;2023-03-08T12:45:37;99418.00;;;6.60;66.54
8101;BME280;4093;53.470;9.832;2023-03-08T12:48:20;99436.22;;;6.49;66.87
8101;BME280;4093;53.470;9.832;2023-03-08T12:51:02;99422.88;;;5.90;68.15
8101;BME280;4093;53.470;9.832;2023-03-08T12:53:37;99427.25;;;7.03;64.70
8101;BME280;4093;53.470;9.832;2023-03-08T12:56:24;99422.66;;;6.80;64.33
8101;BME280;4093;53.470;9.832;2023-03-08T12:58:57;99431.56;;;7.02;64.62
8101;BME280;4093;53.470;9.832;2023-03-08T13:01:29;99433.97;;;6.72;65.61
8101;BME280;4093;53.470;9.832;2023-03-08T13:03:58;99395.97;;;5.67;68.68
8101;BME280;4093;53.470;9.832;2023-03-08T13:06:58;99453.81;;;7.03;66.24
8101;BME280;4093;53.470;9.832;2023-03-08T13:09:29;99445.09;;;6.34;67.26
8101;BME280;4093;53.470;9.832;2023-03-08T13:14:46;99444.50;;;6.21;67.92
8101;BME280;4093;53.470;9.832;2023-03-08T13:17:36;99438.66;;;5.70;69.40
8101;BME280;4093;53.470;9.832;2023-03-08T13:20:14;99466.06;;;5.68;70.41
8101;BME280;4093;53.470;9.832;2023-03-08T13:22:52;99457.97;;;6.71;67.68
8101;BME280;4093;53.470;9.832;2023-03-08T13:25:38;99445.34;;;6.61;66.70
8101;BME280;4093;53.470;9.832;2023-03-08T13:28:10;99466.72;;;6.63;66.76
8101;BME280;4093;53.470;9.832;2023-03-08T13:30:42;99458.59;;;7.84;64.79
8101;BME280;4093;53.470;9.832;2023-03-08T13:33:13;99444.00;;;7.84;63.40
8101;BME280;4093;53.470;9.832;2023-03-08T13:35:41;99448.28;;;6.83;63.30
8101;BME280;4093;53.470;9.832;2023-03-08T13:38:19;99446.13;;;7.36;63.75
8101;BME280;4093;53.470;9.832;2023-03-08T13:40:53;99456.50;;;7.65;62.78
8101;BME280;4093;53.470;9.832;2023-03-08T13:43:21;99463.75;;;6.80;66.11
8101;BME280;4093;53.470;9.832;2023-03-08T13:45:52;99463.94;;;7.44;63.49
8101;BME280;4093;53.470;9.832;2023-03-08T13:48:21;99452.47;;;6.49;65.35
8101;BME280;4093;53.470;9.832;2023-03-08T13:50:50;99450.19;;;6.36;65.33
8101;BME280;4093;53.470;9.832;2023-03-08T13:53:23;99453.25;;;7.59;63.09
8101;BME280;4093;53.470;9.832;2023-03-08T13:55:53;99444.53;;;7.32;62.77